This is the latest recevied weather packets stored in our database for station/object IU7LMH-13. If no packets are shown the sender has not sent any weather packets the latest 10 day(s).
| Time | Temp. | Humidity | Pressure | Rain* | Wind** | Luminosity | Snow |
|---|---|---|---|---|---|---|---|
| 1777712857 | 18.33° C | 37% | 1021.4 hPa | 0 mm | - | - | - |
| 1777712616 | 19.44° C | 35% | 1021.3 hPa | 0 mm | - | - | - |
| 1777712258 | 18.89° C | 36% | 1021.3 hPa | 0 mm | - | - | - |
| 1777712016 | 17.78° C | 37% | 1021.4 hPa | 0 mm | - | - | - |
| 1777710941 | 18.33° C | 36% | 1021.4 hPa | 0 mm | - | - | - |
| 1777710457 | 18.89° C | 37% | 1021.3 hPa | 0 mm | - | - | - |
| 1777708058 | 18.33° C | 47% | 1021.6 hPa | 0 mm | - | - | - |
| 1777707817 | 17.78° C | 48% | 1021.5 hPa | 0 mm | - | - | - |
| 1777707701 | 17.78° C | 48% | 1021.5 hPa | 0 mm | - | - | - |
| 1777707099 | 17.22° C | 47% | 1021.7 hPa | 0 mm | - | - | - |
| 1777704352 | 15.56° C | 57% | 1021.5 hPa | 0 mm | - | - | - |
| 1777703262 | 15° C | 59% | 1021.4 hPa | 0 mm | - | - | - |
| 1777702903 | 14.44° C | 59% | 1021.5 hPa | 0 mm | - | - | - |
| 1777702422 | 14.44° C | 61% | 1021.4 hPa | 0 mm | - | - | - |
| 1777701950 | 13.89° C | 60% | 1021.5 hPa | 0 mm | - | - | - |
| 1777701821 | 13.89° C | 60% | 1021.3 hPa | 0 mm | - | - | - |
| 1777701103 | 13.89° C | 62% | 1021.4 hPa | 0 mm | - | - | - |
| 1777698607 | 12.22° C | 66% | 1021.4 hPa | 0 mm | - | - | - |
| 1777697381 | 11.67° C | 68% | 1021.4 hPa | 0 mm | - | - | - |
| 1777696657 | 11.11° C | 69% | 1021.2 hPa | 0 mm | - | - | - |
| 1777695946 | 10.56° C | 71% | 1021 hPa | 0 mm | - | - | - |
| 1777695581 | 10° C | 72% | 1021.1 hPa | 0 mm | - | - | - |
| 1777694378 | 10° C | 73% | 1020.9 hPa | 0 mm | - | - | - |
| 1777694267 | 10° C | 73% | 1021 hPa | 0 mm | - | - | - |
| 1777691076 | 10.56° C | 72% | 1021 hPa | 0 mm | - | - | - |
* Rain latest hour (hover to see other rain measurements)
** Current wind speed in m/s (hover to see current wind gust speed)